sensor_id;sensor_type;location;lat;lon;timestamp;temperature;humidity
32322;DHT22;61553;48.994;8.940;2024-03-22T00:01:53;5.10;99.90
32322;DHT22;61553;48.994;8.940;2024-03-22T00:04:19;5.10;99.90
32322;DHT22;61553;48.994;8.940;2024-03-22T00:06:46;5.00;99.90
32322;DHT22;61553;48.994;8.940;2024-03-22T00:09:12;5.00;99.90
32322;DHT22;61553;48.994;8.940;2024-03-22T00:11:39;4.90;99.90
32322;DHT22;61553;48.994;8.940;2024-03-22T00:14:06;4.80;99.90
32322;DHT22;61553;48.994;8.940;2024-03-22T00:16:32;4.80;99.90
32322;DHT22;61553;48.994;8.940;2024-03-22T00:18:57;4.80;99.90
32322;DHT22;61553;48.994;8.940;2024-03-22T00:21:23;4.70;99.90
32322;DHT22;61553;48.994;8.940;2024-03-22T00:23:49;4.70;99.90
32322;DHT22;61553;48.994;8.940;2024-03-22T00:26:15;4.60;99.90
32322;DHT22;61553;48.994;8.940;2024-03-22T00:28:41;4.60;99.90
32322;DHT22;61553;48.994;8.940;2024-03-22T00:31:07;4.50;99.90
32322;DHT22;61553;48.994;8.940;2024-03-22T00:33:32;4.50;99.90
32322;DHT22;61553;48.994;8.940;2024-03-22T00:35:58;4.40;99.90
32322;DHT22;61553;48.994;8.940;2024-03-22T00:38:24;4.40;99.90
32322;DHT22;61553;48.994;8.940;2024-03-22T00:40:49;4.30;99.90
32322;DHT22;61553;48.994;8.940;2024-03-22T00:43:15;4.30;99.90
32322;DHT22;61553;48.994;8.940;2024-03-22T00:45:41;4.30;99.90
32322;DHT22;61553;48.994;8.940;2024-03-22T00:48:06;4.30;99.90
32322;DHT22;61553;48.994;8.940;2024-03-22T00:50:32;4.30;99.90
32322;DHT22;61553;48.994;8.940;2024-03-22T00:52:58;4.20;99.90
32322;DHT22;61553;48.994;8.940;2024-03-22T00:55:24;4.10;99.90
32322;DHT22;61553;48.994;8.940;2024-03-22T00:57:50;4.10;99.90
32322;DHT22;61553;48.994;8.940;2024-03-22T01:00:17;4.00;99.90
32322;DHT22;61553;48.994;8.940;2024-03-22T01:02:43;3.90;99.90
32322;DHT22;61553;48.994;8.940;2024-03-22T01:05:09;3.90;99.90
32322;DHT22;61553;48.994;8.940;2024-03-22T01:07:36;3.80;99.90
32322;DHT22;61553;48.994;8.940;2024-03-22T01:10:06;3.80;99.90
32322;DHT22;61553;48.994;8.940;2024-03-22T01:12:32;3.80;99.90
32322;DHT22;61553;48.994;8.940;2024-03-22T01:14:57;3.70;99.90
32322;DHT22;61553;48.994;8.940;2024-03-22T01:17:23;3.70;99.90
32322;DHT22;61553;48.994;8.940;2024-03-22T01:19:49;3.60;99.90
32322;DHT22;61553;48.994;8.940;2024-03-22T01:22:16;3.60;99.90
32322;DHT22;61553;48.994;8.940;2024-03-22T01:24:43;3.70;99.90
32322;DHT22;61553;48.994;8.940;2024-03-22T01:27:08;3.70;99.90
32322;DHT22;61553;48.994;8.940;2024-03-22T01:29:34;3.90;99.90
32322;DHT22;61553;48.994;8.940;2024-03-22T01:31:59;3.70;99.90
32322;DHT22;61553;48.994;8.940;2024-03-22T01:34:25;3.60;99.90
32322;DHT22;61553;48.994;8.940;2024-03-22T01:36:51;3.60;99.90
32322;DHT22;61553;48.994;8.940;2024-03-22T01:39:18;3.60;99.90
32322;DHT22;61553;48.994;8.940;2024-03-22T01:41:47;3.70;99.90
32322;DHT22;61553;48.994;8.940;2024-03-22T01:44:12;3.70;99.90
32322;DHT22;61553;48.994;8.940;2024-03-22T01:46:42;3.70;99.90
32322;DHT22;61553;48.994;8.940;2024-03-22T01:49:10;3.70;99.90
32322;DHT22;61553;48.994;8.940;2024-03-22T01:51:37;3.70;99.90
32322;DHT22;61553;48.994;8.940;2024-03-22T01:54:03;3.80;99.90
32322;DHT22;61553;48.994;8.940;2024-03-22T01:56:30;3.90;99.90
32322;DHT22;61553;48.994;8.940;2024-03-22T01:58:56;3.90;99.90
32322;DHT22;61553;48.994;8.940;2024-03-22T02:01:23;3.90;99.90
32322;DHT22;61553;48.994;8.940;2024-03-22T02:03:49;3.80;99.90
32322;DHT22;61553;48.994;8.940;2024-03-22T02:06:14;3.70;99.90
32322;DHT22;61553;48.994;8.940;2024-03-22T02:08:40;3.60;99.90
32322;DHT22;61553;48.994;8.940;2024-03-22T02:11:08;3.60;99.90
32322;DHT22;61553;48.994;8.940;2024-03-22T02:13:34;3.50;99.90
32322;DHT22;61553;48.994;8.940;2024-03-22T02:16:03;3.50;99.90
32322;DHT22;61553;48.994;8.940;2024-03-22T02:18:28;3.50;99.90
32322;DHT22;61553;48.994;8.940;2024-03-22T02:20:54;3.40;99.90
32322;DHT22;61553;48.994;8.940;2024-03-22T02:23:36;3.40;99.90
32322;DHT22;61553;48.994;8.940;2024-03-22T02:26:02;3.30;99.90
32322;DHT22;61553;48.994;8.940;2024-03-22T02:28:28;3.20;99.90
32322;DHT22;61553;48.994;8.940;2024-03-22T02:30:54;3.20;99.90
32322;DHT22;61553;48.994;8.940;2024-03-22T02:33:20;3.20;99.90
32322;DHT22;61553;48.994;8.940;2024-03-22T02:35:49;3.30;99.90
32322;DHT22;61553;48.994;8.940;2024-03-22T02:38:15;3.20;99.90
32322;DHT22;61553;48.994;8.940;2024-03-22T02:40:43;3.30;99.90
32322;DHT22;61553;48.994;8.940;2024-03-22T02:43:09;3.40;99.90
32322;DHT22;61553;48.994;8.940;2024-03-22T02:45:35;3.40;99.90
32322;DHT22;61553;48.994;8.940;2024-03-22T02:48:00;3.50;99.90
32322;DHT22;61553;48.994;8.940;2024-03-22T02:50:26;3.60;99.90
32322;DHT22;61553;48.994;8.940;2024-03-22T02:52:51;3.70;99.90
32322;DHT22;61553;48.994;8.940;2024-03-22T02:55:19;3.80;99.90
32322;DHT22;61553;48.994;8.940;2024-03-22T02:57:45;3.90;99.90
32322;DHT22;61553;48.994;8.940;2024-03-22T03:00:14;4.00;99.90
32322;DHT22;61553;48.994;8.940;2024-03-22T03:02:39;4.00;99.90
32322;DHT22;61553;48.994;8.940;2024-03-22T03:05:05;4.10;99.90
32322;DHT22;61553;48.994;8.940;2024-03-22T03:07:34;4.20;99.90
32322;DHT22;61553;48.994;8.940;2024-03-22T03:10:03;4.20;99.90
32322;DHT22;61553;48.994;8.940;2024-03-22T03:12:29;4.20;99.90
32322;DHT22;61553;48.994;8.940;2024-03-22T03:14:54;4.20;99.90
32322;DHT22;61553;48.994;8.940;2024-03-22T03:17:20;4.30;99.90
32322;DHT22;61553;48.994;8.940;2024-03-22T03:19:45;4.20;99.90
32322;DHT22;61553;48.994;8.940;2024-03-22T03:22:11;4.20;99.90
32322;DHT22;61553;48.994;8.940;2024-03-22T03:24:37;4.20;99.90
32322;DHT22;61553;48.994;8.940;2024-03-22T03:27:02;4.20;99.90
32322;DHT22;61553;48.994;8.940;2024-03-22T03:29:28;4.30;99.90
32322;DHT22;61553;48.994;8.940;2024-03-22T03:31:54;4.30;99.90
32322;DHT22;61553;48.994;8.940;2024-03-22T03:34:19;4.30;99.90
32322;DHT22;61553;48.994;8.940;2024-03-22T03:36:46;4.30;99.90
32322;DHT22;61553;48.994;8.940;2024-03-22T03:39:12;4.40;99.90
32322;DHT22;61553;48.994;8.940;2024-03-22T03:41:37;4.30;99.90
32322;DHT22;61553;48.994;8.940;2024-03-22T03:44:03;4.30;99.90
32322;DHT22;61553;48.994;8.940;2024-03-22T03:46:28;4.40;99.90
32322;DHT22;61553;48.994;8.940;2024-03-22T03:48:54;4.40;99.90
32322;DHT22;61553;48.994;8.940;2024-03-22T03:51:20;4.40;99.90
32322;DHT22;61553;48.994;8.940;2024-03-22T03:53:45;4.40;99.90
32322;DHT22;61553;48.994;8.940;2024-03-22T03:56:11;4.40;99.90
32322;DHT22;61553;48.994;8.940;2024-03-22T03:58:37;4.40;99.90
32322;DHT22;61553;48.994;8.940;2024-03-22T04:01:06;4.40;99.90
32322;DHT22;61553;48.994;8.940;2024-03-22T04:03:32;4.40;99.90
32322;DHT22;61553;48.994;8.940;2024-03-22T04:05:58;4.50;99.90
32322;DHT22;61553;48.994;8.940;2024-03-22T04:08:25;4.50;99.90
32322;DHT22;61553;48.994;8.940;2024-03-22T04:10:55;4.60;99.90
32322;DHT22;61553;48.994;8.940;2024-03-22T04:13:25;4.70;99.90
32322;DHT22;61553;48.994;8.940;2024-03-22T04:15:52;4.80;99.90
32322;DHT22;61553;48.994;8.940;2024-03-22T04:18:17;4.80;99.90
32322;DHT22;61553;48.994;8.940;2024-03-22T04:20:52;4.90;99.90
32322;DHT22;61553;48.994;8.940;2024-03-22T04:23:18;5.00;99.90
32322;DHT22;61553;48.994;8.940;2024-03-22T04:25:55;5.00;99.90
32322;DHT22;61553;48.994;8.940;2024-03-22T04:28:21;5.10;99.90
32322;DHT22;61553;48.994;8.940;2024-03-22T04:31:06;5.10;99.90
32322;DHT22;61553;48.994;8.940;2024-03-22T04:33:33;5.00;99.90
32322;DHT22;61553;48.994;8.940;2024-03-22T04:36:00;5.10;99.90
32322;DHT22;61553;48.994;8.940;2024-03-22T04:38:29;5.10;99.90
32322;DHT22;61553;48.994;8.940;2024-03-22T04:40:55;5.10;99.90
32322;DHT22;61553;48.994;8.940;2024-03-22T04:43:25;5.10;99.90
32322;DHT22;61553;48.994;8.940;2024-03-22T04:45:51;5.10;99.90
32322;DHT22;61553;48.994;8.940;2024-03-22T04:48:20;5.10;99.90
32322;DHT22;61553;48.994;8.940;2024-03-22T04:50:47;5.20;99.90
32322;DHT22;61553;48.994;8.940;2024-03-22T04:53:21;5.20;99.90
32322;DHT22;61553;48.994;8.940;2024-03-22T04:55:47;5.20;99.90
32322;DHT22;61553;48.994;8.940;2024-03-22T04:58:18;5.20;99.90
32322;DHT22;61553;48.994;8.940;2024-03-22T05:00:44;5.20;99.90
32322;DHT22;61553;48.994;8.940;2024-03-22T05:03:10;5.30;99.90
32322;DHT22;61553;48.994;8.940;2024-03-22T05:05:37;5.30;99.90
32322;DHT22;61553;48.994;8.940;2024-03-22T05:08:03;5.20;99.90
32322;DHT22;61553;48.994;8.940;2024-03-22T05:10:30;5.20;99.90
32322;DHT22;61553;48.994;8.940;2024-03-22T05:12:59;5.20;99.90
32322;DHT22;61553;48.994;8.940;2024-03-22T05:15:25;5.20;99.90
32322;DHT22;61553;48.994;8.940;2024-03-22T05:17:51;5.10;99.90
32322;DHT22;61553;48.994;8.940;2024-03-22T05:20:17;5.10;99.90
32322;DHT22;61553;48.994;8.940;2024-03-22T05:22:43;5.00;99.90
32322;DHT22;61553;48.994;8.940;2024-03-22T05:25:08;4.90;99.90
32322;DHT22;61553;48.994;8.940;2024-03-22T05:27:35;4.90;99.90
32322;DHT22;61553;48.994;8.940;2024-03-22T05:30:00;4.80;99.90
32322;DHT22;61553;48.994;8.940;2024-03-22T05:32:26;4.90;99.90
32322;DHT22;61553;48.994;8.940;2024-03-22T05:34:52;4.80;99.90
32322;DHT22;61553;48.994;8.940;2024-03-22T05:37:18;4.80;99.90
32322;DHT22;61553;48.994;8.940;2024-03-22T05:39:44;4.90;99.90
32322;DHT22;61553;48.994;8.940;2024-03-22T05:42:09;4.90;99.90
32322;DHT22;61553;48.994;8.940;2024-03-22T05:44:35;4.90;99.90
32322;DHT22;61553;48.994;8.940;2024-03-22T05:47:01;4.90;99.90
32322;DHT22;61553;48.994;8.940;2024-03-22T05:49:26;5.00;99.90
32322;DHT22;61553;48.994;8.940;2024-03-22T05:51:52;5.10;99.90
32322;DHT22;61553;48.994;8.940;2024-03-22T05:54:18;5.20;99.90
32322;DHT22;61553;48.994;8.940;2024-03-22T05:56:43;5.30;99.90
32322;DHT22;61553;48.994;8.940;2024-03-22T05:59:10;5.40;99.90
32322;DHT22;61553;48.994;8.940;2024-03-22T06:01:36;5.40;99.90
32322;DHT22;61553;48.994;8.940;2024-03-22T06:04:03;5.50;99.90
32322;DHT22;61553;48.994;8.940;2024-03-22T06:06:29;5.50;99.90
32322;DHT22;61553;48.994;8.940;2024-03-22T06:08:54;5.50;99.90
32322;DHT22;61553;48.994;8.940;2024-03-22T06:11:22;5.60;99.90
32322;DHT22;61553;48.994;8.940;2024-03-22T06:13:48;5.70;99.90
32322;DHT22;61553;48.994;8.940;2024-03-22T06:16:14;5.80;99.90
32322;DHT22;61553;48.994;8.940;2024-03-22T06:18:40;6.00;99.90
32322;DHT22;61553;48.994;8.940;2024-03-22T06:21:06;6.10;99.90
32322;DHT22;61553;48.994;8.940;2024-03-22T06:23:32;6.20;99.90
32322;DHT22;61553;48.994;8.940;2024-03-22T06:25:58;6.30;99.90
32322;DHT22;61553;48.994;8.940;2024-03-22T06:28:26;6.20;99.90
32322;DHT22;61553;48.994;8.940;2024-03-22T06:30:52;6.20;99.90
32322;DHT22;61553;48.994;8.940;2024-03-22T06:33:17;6.30;99.90
32322;DHT22;61553;48.994;8.940;2024-03-22T06:35:43;6.40;99.90
32322;DHT22;61553;48.994;8.940;2024-03-22T06:38:09;6.40;99.90
32322;DHT22;61553;48.994;8.940;2024-03-22T06:40:35;6.60;99.90
32322;DHT22;61553;48.994;8.940;2024-03-22T06:43:00;6.60;99.90
32322;DHT22;61553;48.994;8.940;2024-03-22T06:45:26;6.70;99.90
32322;DHT22;61553;48.994;8.940;2024-03-22T06:47:52;6.70;99.90
32322;DHT22;61553;48.994;8.940;2024-03-22T06:50:17;6.70;99.90
32322;DHT22;61553;48.994;8.940;2024-03-22T06:52:43;6.70;99.90
32322;DHT22;61553;48.994;8.940;2024-03-22T06:55:09;6.80;99.90
32322;DHT22;61553;48.994;8.940;2024-03-22T06:57:39;6.80;99.90
32322;DHT22;61553;48.994;8.940;2024-03-22T07:00:05;7.00;99.90
32322;DHT22;61553;48.994;8.940;2024-03-22T07:02:31;7.10;99.90
32322;DHT22;61553;48.994;8.940;2024-03-22T07:04:56;7.30;99.90
32322;DHT22;61553;48.994;8.940;2024-03-22T07:07:22;7.50;99.90
32322;DHT22;61553;48.994;8.940;2024-03-22T07:09:48;7.60;99.90
32322;DHT22;61553;48.994;8.940;2024-03-22T07:12:13;7.70;99.90
32322;DHT22;61553;48.994;8.940;2024-03-22T07:14:39;7.80;99.90
32322;DHT22;61553;48.994;8.940;2024-03-22T07:17:05;7.90;99.90
32322;DHT22;61553;48.994;8.940;2024-03-22T07:19:31;8.00;99.90
32322;DHT22;61553;48.994;8.940;2024-03-22T07:21:58;8.30;99.90
32322;DHT22;61553;48.994;8.940;2024-03-22T07:24:25;8.70;99.90
32322;DHT22;61553;48.994;8.940;2024-03-22T07:26:51;9.90;99.90
32322;DHT22;61553;48.994;8.940;2024-03-22T07:29:16;11.40;99.90
32322;DHT22;61553;48.994;8.940;2024-03-22T07:31:42;13.40;99.90
32322;DHT22;61553;48.994;8.940;2024-03-22T07:34:08;15.20;99.90
32322;DHT22;61553;48.994;8.940;2024-03-22T07:36:37;16.80;95.80
32322;DHT22;61553;48.994;8.940;2024-03-22T07:39:03;18.50;89.90
32322;DHT22;61553;48.994;8.940;2024-03-22T07:41:32;18.90;85.40
32322;DHT22;61553;48.994;8.940;2024-03-22T07:43:58;20.40;80.80
32322;DHT22;61553;48.994;8.940;2024-03-22T07:46:32;22.00;69.90
32322;DHT22;61553;48.994;8.940;2024-03-22T07:48:58;20.60;69.70
32322;DHT22;61553;48.994;8.940;2024-03-22T07:51:25;19.10;73.20
32322;DHT22;61553;48.994;8.940;2024-03-22T07:53:50;18.80;73.90
32322;DHT22;61553;48.994;8.940;2024-03-22T07:56:17;19.00;74.20
32322;DHT22;61553;48.994;8.940;2024-03-22T07:58:44;19.20;72.80
32322;DHT22;61553;48.994;8.940;2024-03-22T08:01:09;19.30;72.80
32322;DHT22;61553;48.994;8.940;2024-03-22T08:03:36;19.60;72.20
32322;DHT22;61553;48.994;8.940;2024-03-22T08:06:01;20.60;71.30
32322;DHT22;61553;48.994;8.940;2024-03-22T08:08:27;21.90;66.90
32322;DHT22;61553;48.994;8.940;2024-03-22T08:10:53;22.30;64.90
32322;DHT22;61553;48.994;8.940;2024-03-22T08:13:18;22.60;63.90
32322;DHT22;61553;48.994;8.940;2024-03-22T08:15:44;22.00;64.70
32322;DHT22;61553;48.994;8.940;2024-03-22T08:18:11;22.10;64.40
32322;DHT22;61553;48.994;8.940;2024-03-22T08:20:36;22.00;64.80
32322;DHT22;61553;48.994;8.940;2024-03-22T08:23:04;22.80;62.40
32322;DHT22;61553;48.994;8.940;2024-03-22T08:25:30;22.90;61.70
32322;DHT22;61553;48.994;8.940;2024-03-22T08:27:56;23.80;61.00
32322;DHT22;61553;48.994;8.940;2024-03-22T08:30:22;23.90;58.80
32322;DHT22;61553;48.994;8.940;2024-03-22T08:32:48;23.60;59.60
32322;DHT22;61553;48.994;8.940;2024-03-22T08:35:14;22.70;59.60
32322;DHT22;61553;48.994;8.940;2024-03-22T08:37:39;23.60;60.20
32322;DHT22;61553;48.994;8.940;2024-03-22T08:40:05;25.30;57.30
32322;DHT22;61553;48.994;8.940;2024-03-22T08:42:32;24.70;57.10
32322;DHT22;61553;48.994;8.940;2024-03-22T08:44:57;25.30;56.20
32322;DHT22;61553;48.994;8.940;2024-03-22T08:47:23;25.50;54.30
32322;DHT22;61553;48.994;8.940;2024-03-22T08:49:49;25.60;55.30
32322;DHT22;61553;48.994;8.940;2024-03-22T08:52:15;25.10;55.50
32322;DHT22;61553;48.994;8.940;2024-03-22T08:54:40;25.40;55.00
32322;DHT22;61553;48.994;8.940;2024-03-22T08:57:06;26.00;53.90
32322;DHT22;61553;48.994;8.940;2024-03-22T08:59:32;26.40;53.00
32322;DHT22;61553;48.994;8.940;2024-03-22T09:01:58;26.00;54.10
32322;DHT22;61553;48.994;8.940;2024-03-22T09:04:25;25.10;54.60
32322;DHT22;61553;48.994;8.940;2024-03-22T09:06:50;24.30;56.30
32322;DHT22;61553;48.994;8.940;2024-03-22T09:09:16;23.60;57.10
32322;DHT22;61553;48.994;8.940;2024-03-22T09:11:42;23.80;57.00
32322;DHT22;61553;48.994;8.940;2024-03-22T09:14:08;24.10;56.60
32322;DHT22;61553;48.994;8.940;2024-03-22T09:16:34;25.50;55.00
32322;DHT22;61553;48.994;8.940;2024-03-22T09:18:59;26.40;52.80
32322;DHT22;61553;48.994;8.940;2024-03-22T09:21:25;26.50;52.40
32322;DHT22;61553;48.994;8.940;2024-03-22T09:23:51;25.90;53.30
32322;DHT22;61553;48.994;8.940;2024-03-22T09:26:16;25.80;53.10
32322;DHT22;61553;48.994;8.940;2024-03-22T09:28:45;26.00;53.00
32322;DHT22;61553;48.994;8.940;2024-03-22T09:31:11;24.80;54.20
32322;DHT22;61553;48.994;8.940;2024-03-22T09:33:36;25.20;54.10
32322;DHT22;61553;48.994;8.940;2024-03-22T09:36:02;24.70;55.20
32322;DHT22;61553;48.994;8.940;2024-03-22T09:38:28;24.90;54.80
32322;DHT22;61553;48.994;8.940;2024-03-22T09:40:54;24.30;56.30
32322;DHT22;61553;48.994;8.940;2024-03-22T09:43:21;25.40;54.20
32322;DHT22;61553;48.994;8.940;2024-03-22T09:45:48;25.70;52.40
32322;DHT22;61553;48.994;8.940;2024-03-22T09:48:18;25.50;53.30
32322;DHT22;61553;48.994;8.940;2024-03-22T09:50:46;25.50;52.60
32322;DHT22;61553;48.994;8.940;2024-03-22T09:53:13;24.80;54.00
32322;DHT22;61553;48.994;8.940;2024-03-22T09:55:39;24.30;54.60
32322;DHT22;61553;48.994;8.940;2024-03-22T09:58:09;24.50;54.80
32322;DHT22;61553;48.994;8.940;2024-03-22T10:00:35;24.90;54.10
32322;DHT22;61553;48.994;8.940;2024-03-22T10:03:01;25.00;54.10
32322;DHT22;61553;48.994;8.940;2024-03-22T10:05:27;25.60;53.60
32322;DHT22;61553;48.994;8.940;2024-03-22T10:07:53;27.80;50.20
32322;DHT22;61553;48.994;8.940;2024-03-22T10:10:19;28.70;48.20
32322;DHT22;61553;48.994;8.940;2024-03-22T10:12:45;29.40;46.10
32322;DHT22;61553;48.994;8.940;2024-03-22T10:15:10;28.10;46.10
32322;DHT22;61553;48.994;8.940;2024-03-22T10:17:39;27.70;46.60
32322;DHT22;61553;48.994;8.940;2024-03-22T10:20:05;27.30;46.10
32322;DHT22;61553;48.994;8.940;2024-03-22T10:22:38;27.80;46.20
32322;DHT22;61553;48.994;8.940;2024-03-22T10:25:07;26.80;46.80
32322;DHT22;61553;48.994;8.940;2024-03-22T10:27:32;26.90;47.40
32322;DHT22;61553;48.994;8.940;2024-03-22T10:29:58;26.80;46.50
32322;DHT22;61553;48.994;8.940;2024-03-22T10:32:24;26.40;46.90
32322;DHT22;61553;48.994;8.940;2024-03-22T10:34:51;26.60;47.30
32322;DHT22;61553;48.994;8.940;2024-03-22T10:37:16;26.60;47.30
32322;DHT22;61553;48.994;8.940;2024-03-22T10:39:43;26.50;46.90
32322;DHT22;61553;48.994;8.940;2024-03-22T10:42:11;26.00;48.20
32322;DHT22;61553;48.994;8.940;2024-03-22T10:44:38;24.70;49.50
32322;DHT22;61553;48.994;8.940;2024-03-22T10:47:04;24.00;51.40
32322;DHT22;61553;48.994;8.940;2024-03-22T10:49:37;23.20;51.30
32322;DHT22;61553;48.994;8.940;2024-03-22T10:52:03;23.20;52.20
32322;DHT22;61553;48.994;8.940;2024-03-22T10:54:37;23.30;51.30
32322;DHT22;61553;48.994;8.940;2024-03-22T10:57:06;23.60;52.20
32322;DHT22;61553;48.994;8.940;2024-03-22T10:59:35;23.80;51.80
32322;DHT22;61553;48.994;8.940;2024-03-22T11:02:04;24.30;52.40
32322;DHT22;61553;48.994;8.940;2024-03-22T11:04:32;24.10;51.60
32322;DHT22;61553;48.994;8.940;2024-03-22T11:06:58;23.80;52.10
32322;DHT22;61553;48.994;8.940;2024-03-22T11:09:26;23.30;52.60
32322;DHT22;61553;48.994;8.940;2024-03-22T11:11:53;23.30;52.60
32322;DHT22;61553;48.994;8.940;2024-03-22T11:14:20;23.50;51.60
32322;DHT22;61553;48.994;8.940;2024-03-22T11:16:52;23.10;52.70
32322;DHT22;61553;48.994;8.940;2024-03-22T11:19:18;23.00;52.80
32322;DHT22;61553;48.994;8.940;2024-03-22T11:21:44;23.10;52.60
32322;DHT22;61553;48.994;8.940;2024-03-22T11:24:09;22.60;52.50
32322;DHT22;61553;48.994;8.940;2024-03-22T11:26:36;22.40;53.10
32322;DHT22;61553;48.994;8.940;2024-03-22T11:29:02;22.30;53.60
32322;DHT22;61553;48.994;8.940;2024-03-22T11:31:28;22.30;55.00
32322;DHT22;61553;48.994;8.940;2024-03-22T11:33:54;22.10;54.10
32322;DHT22;61553;48.994;8.940;2024-03-22T11:36:20;22.20;55.10
32322;DHT22;61553;48.994;8.940;2024-03-22T11:38:46;22.10;55.00
32322;DHT22;61553;48.994;8.940;2024-03-22T11:41:14;21.90;54.10
32322;DHT22;61553;48.994;8.940;2024-03-22T11:43:42;21.60;55.30
32322;DHT22;61553;48.994;8.940;2024-03-22T11:46:08;21.40;56.30
32322;DHT22;61553;48.994;8.940;2024-03-22T11:48:39;21.20;55.60
32322;DHT22;61553;48.994;8.940;2024-03-22T11:51:06;20.90;56.80
32322;DHT22;61553;48.994;8.940;2024-03-22T11:53:32;20.80;56.90
32322;DHT22;61553;48.994;8.940;2024-03-22T11:55:57;20.70;57.90
32322;DHT22;61553;48.994;8.940;2024-03-22T11:58:26;20.90;57.10
32322;DHT22;61553;48.994;8.940;2024-03-22T12:00:52;20.90;57.30
32322;DHT22;61553;48.994;8.940;2024-03-22T12:03:18;20.90;58.20
32322;DHT22;61553;48.994;8.940;2024-03-22T12:05:44;20.80;57.30
32322;DHT22;61553;48.994;8.940;2024-03-22T12:08:10;21.10;57.40
32322;DHT22;61553;48.994;8.940;2024-03-22T12:10:37;21.30;57.80
32322;DHT22;61553;48.994;8.940;2024-03-22T12:13:02;21.20;56.10
32322;DHT22;61553;48.994;8.940;2024-03-22T12:15:28;21.40;55.50
32322;DHT22;61553;48.994;8.940;2024-03-22T12:17:54;21.40;55.70
32322;DHT22;61553;48.994;8.940;2024-03-22T12:20:19;21.50;55.00
32322;DHT22;61553;48.994;8.940;2024-03-22T12:22:46;21.30;54.90
32322;DHT22;61553;48.994;8.940;2024-03-22T12:25:11;21.50;56.70
32322;DHT22;61553;48.994;8.940;2024-03-22T12:27:37;21.40;56.50
32322;DHT22;61553;48.994;8.940;2024-03-22T12:30:03;21.40;54.10
32322;DHT22;61553;48.994;8.940;2024-03-22T12:32:29;21.50;55.50
32322;DHT22;61553;48.994;8.940;2024-03-22T12:34:54;21.50;55.70
32322;DHT22;61553;48.994;8.940;2024-03-22T12:37:20;21.60;55.20
32322;DHT22;61553;48.994;8.940;2024-03-22T12:39:45;21.90;54.40
32322;DHT22;61553;48.994;8.940;2024-03-22T12:42:12;21.90;52.90
32322;DHT22;61553;48.994;8.940;2024-03-22T12:44:38;21.80;54.00
32322;DHT22;61553;48.994;8.940;2024-03-22T12:47:04;22.00;53.80
32322;DHT22;61553;48.994;8.940;2024-03-22T12:49:29;22.00;52.60
32322;DHT22;61553;48.994;8.940;2024-03-22T12:51:55;21.90;51.70
32322;DHT22;61553;48.994;8.940;2024-03-22T12:54:22;21.90;52.50
32322;DHT22;61553;48.994;8.940;2024-03-22T12:56:47;22.00;51.00
32322;DHT22;61553;48.994;8.940;2024-03-22T12:59:13;22.00;51.00
32322;DHT22;61553;48.994;8.940;2024-03-22T13:01:39;21.70;52.40
32322;DHT22;61553;48.994;8.940;2024-03-22T13:04:04;21.70;51.20
32322;DHT22;61553;48.994;8.940;2024-03-22T13:06:30;21.90;50.00
32322;DHT22;61553;48.994;8.940;2024-03-22T13:08:56;21.70;50.20
32322;DHT22;61553;48.994;8.940;2024-03-22T13:11:22;21.80;50.90
32322;DHT22;61553;48.994;8.940;2024-03-22T13:13:48;21.70;51.10
32322;DHT22;61553;48.994;8.940;2024-03-22T13:16:13;21.40;50.90
32322;DHT22;61553;48.994;8.940;2024-03-22T13:18:41;21.50;49.50
32322;DHT22;61553;48.994;8.940;2024-03-22T13:21:06;21.50;52.30
32322;DHT22;61553;48.994;8.940;2024-03-22T13:23:32;21.40;53.50
32322;DHT22;61553;48.994;8.940;2024-03-22T13:26:03;21.40;53.80
32322;DHT22;61553;48.994;8.940;2024-03-22T13:28:29;21.10;53.40
32322;DHT22;61553;48.994;8.940;2024-03-22T13:31:04;21.10;53.30
32322;DHT22;61553;48.994;8.940;2024-03-22T13:33:34;20.90;53.70
32322;DHT22;61553;48.994;8.940;2024-03-22T13:36:00;20.80;55.00
32322;DHT22;61553;48.994;8.940;2024-03-22T13:38:26;20.70;55.10
32322;DHT22;61553;48.994;8.940;2024-03-22T13:40:58;20.70;54.80
32322;DHT22;61553;48.994;8.940;2024-03-22T13:43:26;20.90;53.50
32322;DHT22;61553;48.994;8.940;2024-03-22T13:45:55;20.80;53.70
32322;DHT22;61553;48.994;8.940;2024-03-22T13:48:22;20.90;52.60
32322;DHT22;61553;48.994;8.940;2024-03-22T13:50:57;20.80;53.90
32322;DHT22;61553;48.994;8.940;2024-03-22T13:53:23;20.50;54.90
32322;DHT22;61553;48.994;8.940;2024-03-22T13:55:51;20.30;55.40
32322;DHT22;61553;48.994;8.940;2024-03-22T13:58:20;20.10;54.10
32322;DHT22;61553;48.994;8.940;2024-03-22T14:00:46;20.00;55.70
32322;DHT22;61553;48.994;8.940;2024-03-22T14:03:11;20.00;55.40
32322;DHT22;61553;48.994;8.940;2024-03-22T14:05:37;19.90;56.70
32322;DHT22;61553;48.994;8.940;2024-03-22T14:08:03;19.80;56.30
32322;DHT22;61553;48.994;8.940;2024-03-22T14:10:31;19.60;56.90
32322;DHT22;61553;48.994;8.940;2024-03-22T14:12:57;19.50;58.20
32322;DHT22;61553;48.994;8.940;2024-03-22T14:15:24;19.20;58.00
32322;DHT22;61553;48.994;8.940;2024-03-22T14:17:52;19.10;58.90
32322;DHT22;61553;48.994;8.940;2024-03-22T14:20:17;19.20;60.30
32322;DHT22;61553;48.994;8.940;2024-03-22T14:22:44;19.30;59.40
32322;DHT22;61553;48.994;8.940;2024-03-22T14:25:11;19.20;59.20
32322;DHT22;61553;48.994;8.940;2024-03-22T14:27:36;19.20;58.60
32322;DHT22;61553;48.994;8.940;2024-03-22T14:30:03;19.10;58.60
32322;DHT22;61553;48.994;8.940;2024-03-22T14:32:35;19.00;59.20
32322;DHT22;61553;48.994;8.940;2024-03-22T14:35:01;19.00;59.20
32322;DHT22;61553;48.994;8.940;2024-03-22T14:37:27;19.10;60.10
32322;DHT22;61553;48.994;8.940;2024-03-22T14:39:52;19.00;59.20
32322;DHT22;61553;48.994;8.940;2024-03-22T14:42:18;18.90;60.60
32322;DHT22;61553;48.994;8.940;2024-03-22T14:44:44;18.70;61.70
32322;DHT22;61553;48.994;8.940;2024-03-22T14:47:10;18.60;60.90
32322;DHT22;61553;48.994;8.940;2024-03-22T14:49:35;18.60;60.50
32322;DHT22;61553;48.994;8.940;2024-03-22T14:52:01;18.60;61.50
32322;DHT22;61553;48.994;8.940;2024-03-22T14:54:27;18.50;62.80
32322;DHT22;61553;48.994;8.940;2024-03-22T14:56:52;18.40;62.50
32322;DHT22;61553;48.994;8.940;2024-03-22T14:59:20;18.20;62.20
32322;DHT22;61553;48.994;8.940;2024-03-22T15:01:46;18.10;62.10
32322;DHT22;61553;48.994;8.940;2024-03-22T15:04:12;18.00;62.70
32322;DHT22;61553;48.994;8.940;2024-03-22T15:06:38;18.00;63.40
32322;DHT22;61553;48.994;8.940;2024-03-22T15:09:04;17.90;63.80
32322;DHT22;61553;48.994;8.940;2024-03-22T15:11:35;17.80;64.00
32322;DHT22;61553;48.994;8.940;2024-03-22T15:14:01;17.80;63.90
32322;DHT22;61553;48.994;8.940;2024-03-22T15:16:27;17.70;64.10
32322;DHT22;61553;48.994;8.940;2024-03-22T15:18:52;17.70;64.20
32322;DHT22;61553;48.994;8.940;2024-03-22T15:21:18;17.60;65.00
32322;DHT22;61553;48.994;8.940;2024-03-22T15:23:46;17.60;64.10
32322;DHT22;61553;48.994;8.940;2024-03-22T15:26:11;17.60;65.30
32322;DHT22;61553;48.994;8.940;2024-03-22T15:28:37;17.60;64.50
32322;DHT22;61553;48.994;8.940;2024-03-22T15:31:03;17.60;65.40
32322;DHT22;61553;48.994;8.940;2024-03-22T15:33:28;17.50;65.20